createdAt,value
2023-03-27T00:00:51.048Z,98018.16
2023-03-27T00:01:53.686Z,98014.69
2023-03-27T00:02:58.109Z,98019.00
2023-03-27T00:04:00.727Z,98016.44
2023-03-27T00:05:05.534Z,98013.84
2023-03-27T00:06:11.529Z,98012.97
2023-03-27T00:07:15.255Z,98011.31
2023-03-27T00:08:18.127Z,98011.31
2023-03-27T00:09:22.037Z,98015.59
2023-03-27T00:10:24.956Z,98002.66
2023-03-27T00:11:28.568Z,98012.13
2023-03-27T00:12:31.042Z,98019.06
2023-03-27T00:13:35.142Z,98013.00
2023-03-27T00:14:37.626Z,98018.19
2023-03-27T00:15:41.271Z,98025.06
2023-03-27T00:16:46.503Z,98034.56
2023-03-27T00:17:53.038Z,98032.84
2023-03-27T00:18:56.711Z,98025.06
2023-03-27T00:20:00.293Z,98031.06
2023-03-27T00:21:03.919Z,98019.03
2023-03-27T00:22:07.509Z,98025.06
2023-03-27T00:23:09.805Z,98031.94
2023-03-27T00:24:14.185Z,98027.66
2023-03-27T00:25:17.488Z,98026.78
2023-03-27T00:26:22.205Z,98027.66
2023-03-27T00:27:25.348Z,98017.31
2023-03-27T00:28:30.515Z,98020.75
2023-03-27T00:29:33.848Z,98018.19
2023-03-27T00:30:38.642Z,98023.34
2023-03-27T00:31:43.755Z,98028.53
2023-03-27T00:32:49.136Z,98028.50
2023-03-27T00:33:51.965Z,98038.84
2023-03-27T00:34:55.654Z,98037.97
2023-03-27T00:35:57.973Z,98038.84
2023-03-27T00:37:01.390Z,98036.22
2023-03-27T00:38:04.005Z,98037.94
2023-03-27T00:39:07.727Z,98043.13
2023-03-27T00:40:13.862Z,98048.28
2023-03-27T00:41:17.617Z,98039.63
2023-03-27T00:42:23.543Z,98045.66
2023-03-27T00:43:28.829Z,98037.91
2023-03-27T00:44:34.503Z,98044.78
2023-03-27T00:45:38.280Z,98037.03
2023-03-27T00:46:44.376Z,98042.22
2023-03-27T00:47:55.073Z,98036.19
2023-03-27T00:49:00.448Z,98034.47
2023-03-27T00:50:09.081Z,98029.25
2023-03-27T00:51:11.735Z,98036.16
2023-03-27T00:52:16.996Z,98045.66
2023-03-27T00:53:23.721Z,98044.78
2023-03-27T00:54:31.958Z,98046.53
2023-03-27T00:55:37.796Z,98045.63
2023-03-27T00:56:42.395Z,98032.69
2023-03-27T00:57:50.227Z,98043.81
2023-03-27T00:58:57.155Z,98050.72
2023-03-27T01:00:02.313Z,98052.44
2023-03-27T01:01:06.321Z,98051.56
2023-03-27T01:02:09.971Z,98051.56
2023-03-27T01:03:15.556Z,98048.06
2023-03-27T01:04:21.614Z,98049.78
2023-03-27T01:05:25.257Z,98045.44
2023-03-27T01:06:29.078Z,98048.88
2023-03-27T01:07:32.901Z,98046.25
2023-03-27T01:08:37.995Z,98045.38
2023-03-27T01:09:41.639Z,98052.25
2023-03-27T01:10:52.773Z,98048.78
2023-03-27T01:12:10.496Z,98047.88
2023-03-27T01:13:30.678Z,98046.13
2023-03-27T01:14:39.850Z,98045.25
2023-03-27T01:15:49.995Z,98046.94
2023-03-27T01:17:08.724Z,98046.88
2023-03-27T01:18:26.791Z,98047.72
2023-03-27T01:20:10.137Z,98042.53
2023-03-27T01:21:41.922Z,98049.41
2023-03-27T01:23:58.399Z,98039.03
2023-03-27T01:25:25.162Z,98039.03
2023-03-27T01:27:07.748Z,98040.69
2023-03-27T01:28:22.087Z,98042.34
2023-03-27T01:29:35.829Z,98041.47
2023-03-27T01:30:42.334Z,98036.28
2023-03-27T01:32:00.676Z,98043.16
2023-03-27T01:33:29.276Z,98039.69
2023-03-27T01:34:48.657Z,98041.38
2023-03-27T01:36:47.960Z,98039.59
2023-03-27T01:38:05.660Z,98037.00
2023-03-27T01:39:37.080Z,98035.25
2023-03-27T01:40:46.505Z,98032.69
2023-03-27T01:41:56.167Z,98036.13
2023-03-27T01:43:04.851Z,98035.22
2023-03-27T01:44:16.879Z,98042.13
2023-03-27T01:45:23.605Z,98041.25
2023-03-27T01:46:34.929Z,98036.97
2023-03-27T01:47:46.215Z,98042.09
2023-03-27T01:48:51.981Z,98026.56
2023-03-27T01:50:02.015Z,98036.09
2023-03-27T01:51:11.816Z,98029.19
2023-03-27T01:52:22.625Z,98029.19
2023-03-27T01:53:28.704Z,98028.31
2023-03-27T01:54:36.799Z,98034.31
2023-03-27T01:55:46.248Z,98031.72
2023-03-27T01:56:53.976Z,98030.00
2023-03-27T01:58:03.393Z,98028.25
2023-03-27T01:59:11.575Z,98027.44
2023-03-27T02:00:19.642Z,98023.94
2023-03-27T02:01:30.214Z,98019.66
2023-03-27T02:02:36.809Z,98016.25
2023-03-27T02:03:44.164Z,98005.88
2023-03-27T02:04:53.237Z,98013.66
2023-03-27T02:06:01.144Z,98011.06
2023-03-27T02:07:12.196Z,98002.50
2023-03-27T02:08:20.425Z,98004.25
2023-03-27T02:09:27.005Z,98004.25
2023-03-27T02:10:36.897Z,97999.94
2023-03-27T02:11:43.260Z,97995.63
2023-03-27T02:12:50.915Z,97987.91
2023-03-27T02:13:57.414Z,97984.53
2023-03-27T02:15:24.725Z,97986.22
2023-03-27T02:16:34.175Z,97981.94
2023-03-27T02:17:40.534Z,97980.19
2023-03-27T02:18:51.230Z,97976.78
2023-03-27T02:19:59.410Z,97975.06
2023-03-27T02:21:02.844Z,97975.06
2023-03-27T02:22:06.446Z,97972.50
2023-03-27T02:23:09.203Z,97968.22
2023-03-27T02:24:13.243Z,97963.91
2023-03-27T02:25:27.415Z,97969.09
2023-03-27T02:26:33.070Z,97970.81
2023-03-27T02:27:42.411Z,97967.38
2023-03-27T02:29:02.480Z,97969.13
2023-03-27T02:30:14.608Z,97972.56
2023-03-27T02:31:32.660Z,97955.34
2023-03-27T02:32:49.122Z,97964.84
2023-03-27T02:34:12.069Z,97960.53
2023-03-27T02:35:29.666Z,97952.81
2023-03-27T02:36:41.846Z,97967.41
2023-03-27T02:37:55.580Z,97939.91
2023-03-27T02:39:04.432Z,97946.72
2023-03-27T02:40:18.943Z,97958.81
2023-03-27T02:41:28.969Z,97957.06
2023-03-27T02:42:43.410Z,97949.34
2023-03-27T02:43:54.132Z,97945.03
2023-03-27T02:45:04.586Z,97953.59
2023-03-27T02:46:13.802Z,97956.22
2023-03-27T02:47:23.759Z,97957.94
2023-03-27T02:48:29.691Z,97954.47
2023-03-27T02:49:38.910Z,97946.69
2023-03-27T02:50:48.573Z,97953.59
2023-03-27T02:51:57.439Z,97948.44
2023-03-27T02:53:02.480Z,97946.72
2023-03-27T02:54:11.301Z,97942.44
2023-03-27T02:55:20.375Z,97947.59
2023-03-27T02:56:26.379Z,97949.31
2023-03-27T02:57:32.069Z,97939.00
2023-03-27T02:58:45.269Z,97938.16
2023-03-27T02:59:52.411Z,97933.81
2023-03-27T03:00:57.010Z,97931.28
2023-03-27T03:02:01.586Z,97933.03
2023-03-27T03:03:10.093Z,97931.31
2023-03-27T03:04:16.972Z,97924.41
2023-03-27T03:05:22.724Z,97930.47
2023-03-27T03:06:30.337Z,97932.19
2023-03-27T03:07:34.881Z,97916.72
2023-03-27T03:08:39.248Z,97928.81
2023-03-27T03:09:44.815Z,97923.66
2023-03-27T03:10:47.933Z,97922.81
2023-03-27T03:11:53.763Z,97915.94
2023-03-27T03:12:56.216Z,97911.66
2023-03-27T03:14:01.698Z,97916.84
2023-03-27T03:15:04.867Z,97913.44
2023-03-27T03:16:10.176Z,97916.00
2023-03-27T03:17:13.789Z,97922.94
2023-03-27T03:18:17.291Z,97922.06
2023-03-27T03:19:19.956Z,97916.03
2023-03-27T03:20:24.267Z,97911.75
2023-03-27T03:21:26.759Z,97915.22
2023-03-27T03:22:30.586Z,97912.63
2023-03-27T03:23:33.227Z,97908.31
2023-03-27T03:24:37.078Z,97904.91
2023-03-27T03:25:39.804Z,97904.03
2023-03-27T03:26:45.319Z,97905.78
2023-03-27T03:27:47.990Z,97904.03
2023-03-27T03:29:00.367Z,97898.91
2023-03-27T03:30:09.746Z,97898.91
2023-03-27T03:31:12.196Z,97896.31
2023-03-27T03:32:16.596Z,97898.03
2023-03-27T03:33:20.264Z,97905.81
2023-03-27T03:34:23.810Z,97903.22
2023-03-27T03:35:26.527Z,97910.97
2023-03-27T03:36:31.072Z,97904.06
2023-03-27T03:37:38.996Z,97907.56
2023-03-27T03:38:43.231Z,97902.38
2023-03-27T03:39:45.953Z,97905.00
2023-03-27T03:40:49.535Z,97905.00
2023-03-27T03:41:52.207Z,97909.31
2023-03-27T03:42:55.761Z,97911.06
2023-03-27T03:43:58.312Z,97906.78
2023-03-27T03:45:01.858Z,97902.50
2023-03-27T03:46:06.286Z,97896.50
2023-03-27T03:47:09.878Z,97892.22
2023-03-27T03:48:12.269Z,97896.53
2023-03-27T03:49:16.084Z,97894.81
2023-03-27T03:50:18.799Z,97893.09
2023-03-27T03:51:22.334Z,97894.84
2023-03-27T03:52:24.953Z,97883.66
2023-03-27T03:53:28.653Z,97881.13
2023-03-27T03:54:30.866Z,97882.84
2023-03-27T03:55:34.479Z,97868.22
2023-03-27T03:56:37.484Z,97868.25
2023-03-27T03:57:42.094Z,97865.69
2023-03-27T03:58:44.667Z,97859.69
2023-03-27T03:59:49.093Z,97855.38
2023-03-27T04:00:51.578Z,97847.63
2023-03-27T04:01:56.996Z,97836.41
2023-03-27T04:02:59.791Z,97839.91
2023-03-27T04:04:03.617Z,97839.06
2023-03-27T04:05:08.736Z,97844.25
2023-03-27T04:06:13.017Z,97839.13
2023-03-27T04:07:18.035Z,97844.31
2023-03-27T04:08:22.234Z,97853.78
2023-03-27T04:09:24.791Z,97850.38
2023-03-27T04:10:28.568Z,97850.38
2023-03-27T04:11:31.035Z,97842.63
2023-03-27T04:12:34.768Z,97847.81
2023-03-27T04:13:37.328Z,97841.78
2023-03-27T04:14:40.796Z,97841.78
2023-03-27T04:15:43.854Z,97847.00
2023-03-27T04:16:47.408Z,97839.22
2023-03-27T04:17:51.406Z,97835.78
2023-03-27T04:18:55.735Z,97845.28
2023-03-27T04:19:58.279Z,97840.09
2023-03-27T04:21:02.220Z,97841.00
2023-03-27T04:22:05.822Z,97841.84
2023-03-27T04:23:09.977Z,97842.72
2023-03-27T04:24:14.290Z,97846.19
2023-03-27T04:25:19.593Z,97831.53
2023-03-27T04:26:26.711Z,97828.09
2023-03-27T04:27:30.602Z,97824.66
2023-03-27T04:28:34.863Z,97810.84
2023-03-27T04:29:43.715Z,97806.53
2023-03-27T04:30:50.563Z,97797.06
2023-03-27T04:31:55.533Z,97794.47
2023-03-27T04:33:00.197Z,97786.72
2023-03-27T04:34:03.877Z,97799.66
2023-03-27T04:35:07.078Z,97802.28
2023-03-27T04:36:11.352Z,97816.06
2023-03-27T04:37:14.986Z,97814.34
2023-03-27T04:38:19.762Z,97813.50
2023-03-27T04:39:22.793Z,97829.00
2023-03-27T04:40:26.380Z,97835.94
2023-03-27T04:41:29.967Z,97845.41
2023-03-27T04:42:33.773Z,97854.91
2023-03-27T04:43:37.082Z,97841.13
2023-03-27T04:44:40.634Z,97834.22
2023-03-27T04:45:43.635Z,97832.47
2023-03-27T04:46:49.024Z,97822.13
2023-03-27T04:47:51.792Z,97816.94
2023-03-27T04:48:57.088Z,97823.84
2023-03-27T04:50:00.691Z,97816.09
2023-03-27T04:51:04.909Z,97812.66
2023-03-27T04:52:08.581Z,97810.94
2023-03-27T04:53:12.016Z,97804.88
2023-03-27T04:54:14.616Z,97796.31
2023-03-27T04:55:18.460Z,97791.97
2023-03-27T04:56:23.036Z,97786.81
2023-03-27T04:57:27.981Z,97780.78
2023-03-27T04:58:30.759Z,97783.38
2023-03-27T04:59:34.769Z,97786.84
2023-03-27T05:00:37.386Z,97775.63
2023-03-27T05:01:40.962Z,97781.69
2023-03-27T05:02:45.027Z,97781.69
2023-03-27T05:03:49.841Z,97779.94
2023-03-27T05:04:58.782Z,97779.97
2023-03-27T05:06:04.272Z,97779.97
2023-03-27T05:07:07.061Z,97779.09
2023-03-27T05:08:10.666Z,97777.38
2023-03-27T05:09:13.257Z,97775.66
2023-03-27T05:10:21.756Z,97776.53
2023-03-27T05:11:25.978Z,97767.03
2023-03-27T05:12:28.463Z,97757.53
2023-03-27T05:13:32.014Z,97755.81
2023-03-27T05:14:34.591Z,97755.81
2023-03-27T05:15:39.300Z,97761.00
2023-03-27T05:16:42.622Z,97760.16
2023-03-27T05:17:53.352Z,97753.22
2023-03-27T05:18:55.939Z,97760.13
2023-03-27T05:20:01.066Z,97759.25
2023-03-27T05:21:03.731Z,97763.56
2023-03-27T05:22:08.047Z,97755.81
2023-03-27T05:23:11.160Z,97760.09
2023-03-27T05:24:15.536Z,97763.59
2023-03-27T05:25:18.304Z,97760.09
2023-03-27T05:26:22.538Z,97752.31
2023-03-27T05:27:25.376Z,97750.59
2023-03-27T05:28:29.416Z,97748.03
2023-03-27T05:29:46.858Z,97741.09
2023-03-27T05:30:51.658Z,97735.06
2023-03-27T05:31:54.084Z,97738.50
2023-03-27T05:32:59.584Z,97726.38
2023-03-27T05:34:03.908Z,97728.09
2023-03-27T05:35:09.458Z,97728.09
2023-03-27T05:36:13.511Z,97720.28
2023-03-27T05:37:16.726Z,97717.66
2023-03-27T05:38:20.589Z,97705.56
2023-03-27T05:39:25.113Z,97713.31
2023-03-27T05:40:30.319Z,97703.78
2023-03-27T05:41:32.928Z,97698.59
2023-03-27T05:42:36.629Z,97693.44
2023-03-27T05:43:40.181Z,97691.69
2023-03-27T05:44:43.590Z,97691.69
2023-03-27T05:45:47.273Z,97689.97
2023-03-27T05:46:49.840Z,97683.91
2023-03-27T05:47:54.876Z,97680.47
2023-03-27T05:48:59.405Z,97671.81
2023-03-27T05:50:03.055Z,97672.66
2023-03-27T05:51:09.536Z,97676.13
2023-03-27T05:52:13.063Z,97665.75
2023-03-27T05:53:15.972Z,97665.75
2023-03-27T05:54:19.454Z,97662.25
2023-03-27T05:55:21.986Z,97661.41
2023-03-27T05:56:25.631Z,97669.16
2023-03-27T05:57:28.957Z,97667.41
2023-03-27T05:58:31.922Z,97669.16
2023-03-27T05:59:36.011Z,97674.34
2023-03-27T06:00:42.246Z,97681.28
2023-03-27T06:01:44.793Z,97683.03
2023-03-27T06:02:49.868Z,97689.13
2023-03-27T06:03:56.228Z,97683.06
2023-03-27T06:05:01.502Z,97696.09
2023-03-27T06:06:11.139Z,97698.66
2023-03-27T06:07:15.286Z,97700.41
2023-03-27T06:08:19.691Z,97705.59
2023-03-27T06:09:23.167Z,97715.09
2023-03-27T06:10:28.595Z,97718.53
2023-03-27T06:11:31.828Z,97718.53
2023-03-27T06:12:36.916Z,97715.94
2023-03-27T06:13:39.774Z,97715.94
2023-03-27T06:14:43.440Z,97716.81
2023-03-27T06:15:45.577Z,97721.16
2023-03-27T06:16:49.663Z,97729.81
2023-03-27T06:17:52.192Z,97728.94
2023-03-27T06:18:56.489Z,97737.59
2023-03-27T06:19:59.799Z,97750.53
2023-03-27T06:21:03.547Z,97753.97
2023-03-27T06:22:07.713Z,97752.25
2023-03-27T06:23:11.416Z,97763.50
2023-03-27T06:24:14.703Z,97768.69
2023-03-27T06:25:17.968Z,97778.19
2023-03-27T06:26:22.608Z,97780.78
2023-03-27T06:27:25.158Z,97780.81
2023-03-27T06:28:28.772Z,97781.69
2023-03-27T06:29:31.614Z,97781.69
2023-03-27T06:30:37.892Z,97777.38
2023-03-27T06:31:40.402Z,97776.53
2023-03-27T06:32:47.950Z,97774.81
2023-03-27T06:33:52.331Z,97771.34
2023-03-27T06:34:56.369Z,97782.59
2023-03-27T06:36:01.085Z,97775.66
2023-03-27T06:37:05.132Z,97777.41
2023-03-27T06:38:09.403Z,97778.25
2023-03-27T06:39:13.489Z,97786.88
2023-03-27T06:40:23.129Z,97790.34
2023-03-27T06:41:26.896Z,97792.06
2023-03-27T06:42:29.433Z,97791.19
2023-03-27T06:43:33.123Z,97780.81
2023-03-27T06:44:35.779Z,97784.28
2023-03-27T06:45:43.646Z,97785.13
2023-03-27T06:46:46.292Z,97780.84
2023-03-27T06:47:54.660Z,97778.25
2023-03-27T06:49:00.359Z,97774.78
2023-03-27T06:50:02.860Z,97782.56
2023-03-27T06:51:07.868Z,97781.72
2023-03-27T06:52:10.338Z,97781.69
2023-03-27T06:54:24.453Z,97772.19
2023-03-27T06:55:29.333Z,97784.28
2023-03-27T06:56:33.123Z,97778.25
2023-03-27T06:57:35.653Z,97780.84
2023-03-27T06:58:40.191Z,97779.97
2023-03-27T06:59:42.734Z,97790.34
2023-03-27T07:00:47.222Z,97777.38
2023-03-27T07:01:52.852Z,97762.72
2023-03-27T07:02:57.531Z,97774.78
2023-03-27T07:04:01.252Z,97768.75
2023-03-27T07:05:05.183Z,97759.25
2023-03-27T07:06:09.665Z,97767.88
2023-03-27T07:07:12.756Z,97764.41
2023-03-27T07:08:23.168Z,97759.25
2023-03-27T07:09:26.478Z,97754.94
2023-03-27T07:10:30.372Z,97751.47
2023-03-27T07:11:33.794Z,97748.00
2023-03-27T07:12:38.036Z,97742.81
2023-03-27T07:13:42.674Z,97747.13
2023-03-27T07:14:45.156Z,97742.81
2023-03-27T07:15:49.000Z,97729.03
2023-03-27T07:16:51.616Z,97720.41
2023-03-27T07:17:56.949Z,97726.41
2023-03-27T07:19:02.252Z,97730.72
2023-03-27T07:20:06.549Z,97730.72
2023-03-27T07:21:10.188Z,97727.22
2023-03-27T07:22:12.479Z,97722.03
2023-03-27T07:23:15.927Z,97730.66
2023-03-27T07:24:21.155Z,97728.91
2023-03-27T07:25:23.807Z,97727.22
2023-03-27T07:26:27.520Z,97723.72
2023-03-27T07:27:30.026Z,97729.75
2023-03-27T07:28:33.724Z,97715.88
2023-03-27T07:29:37.687Z,97708.94
2023-03-27T07:30:41.546Z,97708.94
2023-03-27T07:31:56.963Z,97701.16
2023-03-27T07:33:03.430Z,97712.34
2023-03-27T07:34:06.320Z,97702.84
2023-03-27T07:35:11.139Z,97708.84
2023-03-27T07:36:16.405Z,97702.78
2023-03-27T07:37:22.895Z,97701.91
2023-03-27T07:38:26.556Z,97703.59
2023-03-27T07:39:30.294Z,97705.34
2023-03-27T07:40:39.925Z,97700.97
2023-03-27T07:41:44.497Z,97702.72
2023-03-27T07:42:48.552Z,97698.34
2023-03-27T07:43:52.119Z,97702.66
2023-03-27T07:44:54.734Z,97687.94
2023-03-27T07:45:58.703Z,97693.91
2023-03-27T07:47:02.167Z,97689.50
2023-03-27T07:48:10.129Z,97681.66
2023-03-27T07:49:13.695Z,97679.06
2023-03-27T07:50:19.535Z,97680.72
2023-03-27T07:51:22.932Z,97673.72
2023-03-27T07:52:26.545Z,97666.81
2023-03-27T07:53:33.732Z,97674.47
2023-03-27T07:54:39.660Z,97664.03
2023-03-27T07:55:43.508Z,97661.44
2023-03-27T07:56:47.491Z,97653.59
2023-03-27T07:58:00.710Z,97641.47
2023-03-27T07:59:04.888Z,97650.16
2023-03-27T08:00:12.159Z,97651.03
2023-03-27T08:01:16.101Z,97643.34
2023-03-27T08:02:19.749Z,97646.69
2023-03-27T08:03:26.314Z,97642.31
2023-03-27T08:04:28.964Z,97646.66
2023-03-27T08:05:32.628Z,97631.03
2023-03-27T08:06:35.001Z,97639.66
2023-03-27T08:07:39.636Z,97633.59
2023-03-27T08:08:42.298Z,97636.13
2023-03-27T08:09:47.280Z,97633.56
2023-03-27T08:10:51.101Z,97636.16
2023-03-27T08:11:54.759Z,97635.34
2023-03-27T08:12:57.327Z,97634.47
2023-03-27T08:14:01.258Z,97631.91
2023-03-27T08:15:05.906Z,97633.66
2023-03-27T08:16:11.838Z,97636.22
2023-03-27T08:17:16.679Z,97627.59
2023-03-27T08:18:21.026Z,97625.06
2023-03-27T08:19:25.435Z,97625.91
2023-03-27T08:20:27.911Z,97623.34
2023-03-27T08:21:33.483Z,97624.28
2023-03-27T08:22:38.764Z,97611.28
2023-03-27T08:23:41.295Z,97625.13
2023-03-27T08:24:44.951Z,97626.94
2023-03-27T08:25:51.440Z,97618.25
2023-03-27T08:26:55.294Z,97620.88
2023-03-27T08:27:57.834Z,97618.28
2023-03-27T08:29:01.717Z,97608.72
2023-03-27T08:30:05.258Z,97608.75
2023-03-27T08:31:14.047Z,97605.25
2023-03-27T08:32:17.806Z,97609.59
2023-03-27T08:33:20.487Z,97601.78
2023-03-27T08:34:24.102Z,97614.75
2023-03-27T08:35:26.281Z,97612.16
2023-03-27T08:36:32.213Z,97607.84
2023-03-27T08:37:35.084Z,97602.63
2023-03-27T08:38:39.717Z,97603.50
2023-03-27T08:39:43.228Z,97608.75
2023-03-27T08:40:49.433Z,97602.69
2023-03-27T08:41:56.810Z,97604.38
2023-03-27T08:43:05.229Z,97607.81
2023-03-27T08:44:13.650Z,97608.69
2023-03-27T08:45:23.135Z,97604.38
2023-03-27T08:46:29.936Z,97613.94
2023-03-27T08:47:36.434Z,97610.53
2023-03-27T08:48:46.462Z,97612.22
2023-03-27T08:49:53.198Z,97617.41
2023-03-27T08:50:58.366Z,97600.97
2023-03-27T08:52:04.259Z,97603.56
2023-03-27T08:53:16.857Z,97594.03
2023-03-27T08:54:23.985Z,97596.59
2023-03-27T08:55:34.712Z,97602.59
2023-03-27T08:56:38.683Z,97600.81
2023-03-27T08:57:44.050Z,97592.13
2023-03-27T08:58:48.317Z,97586.88
2023-03-27T08:59:55.390Z,97592.94
2023-03-27T09:01:05.284Z,97596.38
2023-03-27T09:02:11.927Z,97588.53
2023-03-27T09:03:20.975Z,97591.94
2023-03-27T09:04:37.507Z,97587.69
2023-03-27T09:05:44.011Z,97588.59
2023-03-27T09:06:58.817Z,97585.13
2023-03-27T09:08:15.460Z,97587.72
2023-03-27T09:09:31.491Z,97575.59
2023-03-27T09:10:37.170Z,97581.69
2023-03-27T09:11:55.899Z,97585.13
2023-03-27T09:13:09.121Z,97579.06
2023-03-27T09:14:24.924Z,97581.69
2023-03-27T09:15:33.169Z,97575.59
2023-03-27T09:16:39.721Z,97575.50
2023-03-27T09:17:47.871Z,97572.84
2023-03-27T09:18:58.732Z,97561.59
2023-03-27T09:20:09.160Z,97561.53
2023-03-27T09:21:17.977Z,97565.78
2023-03-27T09:22:25.989Z,97551.97
2023-03-27T09:23:36.302Z,97554.50
2023-03-27T09:24:43.623Z,97547.41
2023-03-27T09:25:50.779Z,97550.84
2023-03-27T09:27:06.283Z,97547.31
2023-03-27T09:28:21.011Z,97551.56
2023-03-27T09:29:27.063Z,97553.22
2023-03-27T09:30:32.098Z,97546.31
2023-03-27T09:31:37.679Z,97552.34
2023-03-27T09:32:40.448Z,97539.47
2023-03-27T09:33:44.960Z,97544.59
2023-03-27T09:34:48.517Z,97539.38
2023-03-27T09:35:51.435Z,97540.28
2023-03-27T09:36:56.209Z,97537.72
2023-03-27T09:38:04.060Z,97539.47
2023-03-27T09:39:08.402Z,97535.19
2023-03-27T09:40:23.672Z,97532.63
2023-03-27T09:41:33.867Z,97540.47
2023-03-27T09:42:39.844Z,97540.50
2023-03-27T09:43:52.836Z,97540.59
2023-03-27T09:44:58.733Z,97540.59
2023-03-27T09:46:03.186Z,97537.19
2023-03-27T09:47:11.595Z,97537.25
2023-03-27T09:48:23.864Z,97533.75
2023-03-27T09:49:28.099Z,97530.34
2023-03-27T09:50:39.032Z,97537.34
2023-03-27T09:51:46.565Z,97538.19
2023-03-27T09:52:49.291Z,97546.03
2023-03-27T09:53:59.320Z,97547.91
2023-03-27T09:55:03.192Z,97559.16
2023-03-27T09:56:14.614Z,97556.66
2023-03-27T09:57:17.395Z,97556.72
2023-03-27T09:58:36.818Z,97559.41
2023-03-27T09:59:56.440Z,97556.97
2023-03-27T10:01:16.161Z,97558.75
2023-03-27T10:02:23.886Z,97570.94
2023-03-27T10:03:29.012Z,97564.13
2023-03-27T10:04:32.667Z,97558.09
2023-03-27T10:05:35.403Z,97556.47
2023-03-27T10:06:44.847Z,97561.69
2023-03-27T10:07:47.364Z,97568.63
2023-03-27T10:08:51.388Z,97573.06
2023-03-27T10:10:08.995Z,97567.06
2023-03-27T10:11:17.823Z,97569.69
2023-03-27T10:12:22.656Z,97568.91
2023-03-27T10:13:27.973Z,97563.75
2023-03-27T10:14:34.875Z,97556.00
2023-03-27T10:15:41.611Z,97552.53
2023-03-27T10:16:47.880Z,97549.94
2023-03-27T10:17:52.210Z,97558.59
2023-03-27T10:19:00.089Z,97554.28
2023-03-27T10:20:09.400Z,97560.28
2023-03-27T10:21:20.132Z,97563.75
2023-03-27T10:22:29.017Z,97553.38
2023-03-27T10:23:44.314Z,97552.47
2023-03-27T10:24:49.757Z,97554.97
2023-03-27T10:25:54.407Z,97547.19
2023-03-27T10:27:01.501Z,97546.31
2023-03-27T10:28:19.341Z,97552.38
2023-03-27T10:29:25.843Z,97550.63
2023-03-27T10:30:31.026Z,97557.50
2023-03-27T10:31:38.484Z,97555.78
2023-03-27T10:32:46.981Z,97556.63
2023-03-27T10:33:49.580Z,97562.66
2023-03-27T10:34:55.414Z,97557.44
2023-03-27T10:35:59.605Z,97560.88
2023-03-27T10:37:04.388Z,97564.28
2023-03-27T10:38:12.944Z,97563.38
2023-03-27T10:39:17.484Z,97568.53
2023-03-27T10:40:21.726Z,97567.69
2023-03-27T10:41:43.671Z,97569.44
2023-03-27T10:42:49.116Z,97562.50
2023-03-27T10:43:54.614Z,97564.28
2023-03-27T10:44:57.794Z,97570.34
2023-03-27T10:46:06.174Z,97565.19
2023-03-27T10:47:20.894Z,97567.84
2023-03-27T10:48:37.608Z,97566.16
2023-03-27T10:49:46.745Z,97571.34
2023-03-27T10:50:54.129Z,97567.97
2023-03-27T10:52:06.895Z,97568.88
2023-03-27T10:53:18.266Z,97574.97
2023-03-27T10:54:34.965Z,97585.41
2023-03-27T10:55:51.875Z,97579.41
2023-03-27T10:57:02.725Z,97582.88
2023-03-27T10:58:13.449Z,97580.38
2023-03-27T10:59:25.631Z,97583.84
2023-03-27T11:00:43.677Z,97589.88
2023-03-27T11:01:52.899Z,97582.97
2023-03-27T11:03:03.915Z,97578.69
2023-03-27T11:04:14.526Z,97578.66
2023-03-27T11:05:22.744Z,97572.59
2023-03-27T11:06:31.075Z,97575.22
2023-03-27T11:07:40.930Z,97576.97
2023-03-27T11:08:53.240Z,97576.97
2023-03-27T11:10:02.573Z,97572.69
2023-03-27T11:11:09.755Z,97579.56
2023-03-27T11:12:14.622Z,97558.88
2023-03-27T11:13:23.678Z,97567.47
2023-03-27T11:14:33.856Z,97558.00
2023-03-27T11:15:42.496Z,97549.34
2023-03-27T11:16:50.264Z,97571.75
2023-03-27T11:18:01.322Z,97571.72
2023-03-27T11:19:26.017Z,97572.59
2023-03-27T11:20:33.292Z,97564.81
2023-03-27T11:21:43.580Z,97566.53
2023-03-27T11:22:51.796Z,97569.97
2023-03-27T11:24:00.419Z,97565.66
2023-03-27T11:25:08.516Z,97576.88
2023-03-27T11:26:15.940Z,97578.59
2023-03-27T11:27:27.113Z,97574.28
2023-03-27T11:28:39.964Z,97563.91
2023-03-27T11:29:52.001Z,97556.16
2023-03-27T11:30:57.952Z,97567.31
2023-03-27T11:32:09.372Z,97557.00
2023-03-27T11:33:43.971Z,97572.47
2023-03-27T11:34:57.845Z,97563.00
2023-03-27T11:36:14.656Z,97579.34
2023-03-27T11:37:24.233Z,97561.28
2023-03-27T11:38:31.949Z,97570.78
2023-03-27T11:39:42.289Z,97583.72
2023-03-27T11:40:46.687Z,97573.44
2023-03-27T11:41:53.936Z,97560.53
2023-03-27T11:42:58.701Z,97586.38
2023-03-27T11:44:01.394Z,97587.25
2023-03-27T11:45:09.464Z,97574.34
2023-03-27T11:46:28.421Z,97577.78
2023-03-27T11:47:51.373Z,97570.94
2023-03-27T11:49:05.872Z,97589.09
2023-03-27T11:50:34.759Z,97573.56
2023-03-27T11:51:57.805Z,97585.63
2023-03-27T11:53:11.953Z,97585.66
2023-03-27T11:54:31.490Z,97583.97
2023-03-27T11:55:39.707Z,97593.44
2023-03-27T11:56:52.853Z,97600.34
2023-03-27T11:58:08.372Z,97596.88
2023-03-27T11:59:30.405Z,97591.72
2023-03-27T12:00:42.835Z,97594.31
2023-03-27T12:01:53.671Z,97600.31
2023-03-27T12:03:57.975Z,97602.91
2023-03-27T12:05:08.831Z,97602.94
2023-03-27T12:06:19.346Z,97599.47
2023-03-27T12:07:40.455Z,97608.06
2023-03-27T12:09:06.247Z,97602.03
2023-03-27T12:10:32.057Z,97596.00
2023-03-27T12:11:42.496Z,97599.47
2023-03-27T12:12:57.095Z,97602.91
2023-03-27T12:14:18.530Z,97600.31
2023-03-27T12:15:45.046Z,97598.59
2023-03-27T12:17:34.295Z,97600.31
2023-03-27T12:19:01.913Z,97596.84
2023-03-27T12:20:41.606Z,97605.50
2023-03-27T12:22:02.761Z,97605.50
2023-03-27T12:23:23.403Z,97605.50
2023-03-27T12:24:53.359Z,97607.25
2023-03-27T12:26:14.405Z,97608.06
2023-03-27T12:27:54.368Z,97605.50
2023-03-27T12:29:23.731Z,97609.84
2023-03-27T12:30:36.928Z,97612.44
2023-03-27T12:31:57.264Z,97604.69
2023-03-27T12:33:17.089Z,97606.41
2023-03-27T12:34:33.877Z,97609.03
2023-03-27T12:35:42.567Z,97603.84
2023-03-27T12:36:52.542Z,97590.06
2023-03-27T12:37:59.987Z,97602.13
2023-03-27T12:39:13.106Z,97605.59
2023-03-27T12:40:28.230Z,97603.88
2023-03-27T12:41:34.259Z,97602.13
2023-03-27T12:42:43.968Z,97607.31
2023-03-27T12:43:49.785Z,97609.94
2023-03-27T12:45:14.159Z,97607.34
2023-03-27T12:46:30.717Z,97608.22
2023-03-27T12:47:34.319Z,97606.47
2023-03-27T12:48:46.296Z,97608.22
2023-03-27T12:49:59.393Z,97609.97
2023-03-27T12:51:15.729Z,97616.84
2023-03-27T12:52:20.075Z,97612.53
2023-03-27T12:53:51.290Z,97601.34
2023-03-27T12:55:29.928Z,97606.53
2023-03-27T12:56:37.530Z,97612.56
2023-03-27T12:57:45.628Z,97614.31
2023-03-27T12:58:50.191Z,97618.59
2023-03-27T12:59:56.200Z,97620.34
2023-03-27T13:01:00.806Z,97625.53
2023-03-27T13:02:43.626Z,97618.63
2023-03-27T13:04:08.500Z,97620.38
2023-03-27T13:05:31.913Z,97622.94
2023-03-27T13:06:47.918Z,97622.06
2023-03-27T13:07:58.935Z,97629.84
2023-03-27T13:09:23.315Z,97634.16
2023-03-27T13:10:40.821Z,97636.72
2023-03-27T13:11:59.085Z,97638.44
2023-03-27T13:13:19.782Z,97639.28
2023-03-27T13:14:52.170Z,97641.03
2023-03-27T13:16:07.960Z,97643.59
2023-03-27T13:17:24.996Z,97632.41
2023-03-27T13:18:45.120Z,97635.00
2023-03-27T13:19:59.785Z,97635.84
2023-03-27T13:21:19.148Z,97639.25